Time,TemperatureF,DewpointF,PressureIn,WindDirection,WindDirectionDegrees,WindSpeedMPH,WindSpeedGustMPH,Humidity,HourlyPrecipIn,Conditions,Clouds,dailyrainin,SolarRadiationWatts/m^2,SoftwareType,DateUTC
2015-05-24 00:00:00,63.0,39.0,-100.00,South,180,1.0,-999.0,41,-99.99,,,-99.99,0.000000,,2015-05-24 05:00:00,
2015-05-24 00:31:00,63.0,39.0,-100.00,South,180,1.0,-999.0,41,-99.99,,,-99.99,0.000000,,2015-05-24 05:31:00,
2015-05-24 00:42:00,63.0,39.0,-100.00,South,180,1.0,-999.0,41,-99.99,,,-99.99,0.000000,,2015-05-24 05:42:00,
2015-05-24 00:52:00,63.0,39.0,-100.00,South,180,1.0,-999.0,41,-99.99,,,-99.99,0.000000,,2015-05-24 05:52:00,
2015-05-24 01:00:00,62.0,39.0,-100.00,South,180,1.0,-999.0,42,-99.99,,,-99.99,0.000000,,2015-05-24 06:00:00,
2015-05-24 01:32:00,62.0,39.0,-100.00,South,180,1.0,-999.0,42,-99.99,,,-99.99,0.000000,,2015-05-24 06:32:00,
2015-05-24 01:42:00,62.0,39.0,-100.00,South,180,1.0,-999.0,42,-99.99,,,-99.99,0.000000,,2015-05-24 06:42:00,
2015-05-24 01:52:00,62.0,39.0,-100.00,South,180,1.0,-999.0,42,-99.99,,,-99.99,0.000000,,2015-05-24 06:52:00,
2015-05-24 02:00:00,61.0,39.0,-100.00,South,180,1.0,-999.0,43,-99.99,,,-99.99,0.000000,,2015-05-24 07:00:00,
2015-05-24 02:31:00,61.0,39.0,-100.00,South,180,1.0,-999.0,43,-99.99,,,-99.99,0.000000,,2015-05-24 07:31:00,
2015-05-24 02:42:00,61.0,39.0,-100.00,South,180,1.0,-999.0,43,-99.99,,,-99.99,0.000000,,2015-05-24 07:42:00,
2015-05-24 02:51:00,61.0,39.0,-100.00,South,180,1.0,-999.0,43,-99.99,,,-99.99,0.000000,,2015-05-24 07:51:00,
2015-05-24 03:00:00,62.0,38.0,-100.00,SSE,157,1.0,-999.0,42,-99.99,,,-99.99,0.000000,,2015-05-24 08:00:00,
2015-05-24 03:32:00,62.0,38.0,-100.00,SSE,157,1.0,-999.0,42,-99.99,,,-99.99,0.000000,,2015-05-24 08:32:00,
2015-05-24 03:42:00,62.0,38.0,-100.00,SSE,157,1.0,-999.0,42,-99.99,,,-99.99,0.000000,,2015-05-24 08:42:00,
2015-05-24 03:51:00,62.0,38.0,-100.00,SSE,157,1.0,-999.0,42,-99.99,,,-99.99,0.000000,,2015-05-24 08:51:00,
2015-05-24 04:00:00,62.0,38.0,-100.00,SSE,157,1.0,-999.0,42,-99.99,,,-99.99,0.000000,,2015-05-24 09:00:00,
2015-05-24 04:31:00,62.0,38.0,-100.00,SSE,157,1.0,-999.0,42,-99.99,,,-99.99,0.000000,,2015-05-24 09:31:00,
2015-05-24 04:42:00,62.0,38.0,-100.00,SSE,157,1.0,-999.0,42,-99.99,,,-99.99,0.000000,,2015-05-24 09:42:00,
2015-05-24 04:51:00,62.0,38.0,-100.00,SSE,157,1.0,-999.0,42,-99.99,,,-99.99,0.000000,,2015-05-24 09:51:00,
2015-05-24 05:00:00,61.0,39.0,-100.00,SE,135,0.0,-999.0,44,-99.99,,,-99.99,0.000000,,2015-05-24 10:00:00,
2015-05-24 05:31:00,61.0,39.0,-100.00,SE,135,0.0,-999.0,44,-99.99,,,-99.99,0.000000,,2015-05-24 10:31:00,
2015-05-24 05:42:00,61.0,39.0,-100.00,SE,135,0.0,-999.0,44,-99.99,,,-99.99,0.000000,,2015-05-24 10:42:00,
2015-05-24 05:52:00,61.0,39.0,-100.00,SE,135,0.0,-999.0,44,-99.99,,,-99.99,0.000000,,2015-05-24 10:52:00,
2015-05-24 06:00:00,56.0,43.0,-100.00,NE,45,1.0,-999.0,60,-99.99,,,-99.99,16.240000,,2015-05-24 11:00:00,
2015-05-24 06:32:00,56.0,43.0,-100.00,NE,45,1.0,-999.0,60,-99.99,,,-99.99,16.240000,,2015-05-24 11:32:00,
2015-05-24 06:42:00,56.0,43.0,-100.00,NE,45,1.0,-999.0,60,-99.99,,,-99.99,16.240000,,2015-05-24 11:42:00,
2015-05-24 06:52:00,56.0,43.0,-100.00,NE,45,1.0,-999.0,60,-99.99,,,-99.99,16.240000,,2015-05-24 11:52:00,
2015-05-24 07:00:00,57.0,45.0,-100.00,North,-9999,0.0,-999.0,64,-99.99,,,-99.99,90.480003,,2015-05-24 12:00:00,
2015-05-24 07:32:00,57.0,45.0,-100.00,North,-9999,0.0,-999.0,64,-99.99,,,-99.99,90.480003,,2015-05-24 12:32:00,
2015-05-24 07:42:00,57.0,45.0,-100.00,North,-9999,0.0,-999.0,64,-99.99,,,-99.99,90.480003,,2015-05-24 12:42:00,
2015-05-24 07:52:00,57.0,45.0,-100.00,North,-9999,0.0,-999.0,64,-99.99,,,-99.99,90.480003,,2015-05-24 12:52:00,
2015-05-24 08:00:00,62.0,44.0,-100.00,South,180,0.0,-999.0,52,-99.99,,,-99.99,192.559998,,2015-05-24 13:00:00,
2015-05-24 08:31:00,62.0,44.0,-100.00,South,180,0.0,-999.0,52,-99.99,,,-99.99,192.559998,,2015-05-24 13:31:00,
2015-05-24 08:42:00,62.0,44.0,-100.00,South,180,0.0,-999.0,52,-99.99,,,-99.99,192.559998,,2015-05-24 13:42:00,
2015-05-24 08:52:00,62.0,44.0,-100.00,South,180,0.0,-999.0,52,-99.99,,,-99.99,192.559998,,2015-05-24 13:52:00,
2015-05-24 09:00:00,66.0,45.0,-100.00,ESE,112,1.0,-999.0,47,-99.99,,,-99.99,290.000000,,2015-05-24 14:00:00,
2015-05-24 09:31:00,66.0,45.0,-100.00,ESE,112,1.0,-999.0,47,-99.99,,,-99.99,290.000000,,2015-05-24 14:31:00,
2015-05-24 09:42:00,66.0,45.0,-100.00,ESE,112,1.0,-999.0,47,-99.99,,,-99.99,290.000000,,2015-05-24 14:42:00,
2015-05-24 09:51:00,66.0,45.0,-100.00,ESE,112,1.0,-999.0,47,-99.99,,,-99.99,290.000000,,2015-05-24 14:51:00,
2015-05-24 10:00:00,69.0,47.0,-100.00,SSE,157,1.0,-999.0,45,-99.99,,,-99.99,325.959991,,2015-05-24 15:00:00,
2015-05-24 10:31:00,69.0,47.0,-100.00,SSE,157,1.0,-999.0,45,-99.99,,,-99.99,325.959991,,2015-05-24 15:31:00,
2015-05-24 10:42:00,69.0,47.0,-100.00,SSE,157,1.0,-999.0,45,-99.99,,,-99.99,325.959991,,2015-05-24 15:42:00,
2015-05-24 10:52:00,69.0,47.0,-100.00,SSE,157,1.0,-999.0,45,-99.99,,,-99.99,325.959991,,2015-05-24 15:52:00,
2015-05-24 12:32:00,74.0,49.0,-100.00,South,180,2.0,-999.0,41,-99.99,,,-99.99,298.119995,,2015-05-24 17:32:00,